Time;durP1;ratioP1;P1;durP2;ratioP2;P2;SDS_P1;SDS_P2;PMS_P1;PMS_P2;Temp;Humidity;BMP_temperature;BMP_pressure;BME280_temperature;BME280_humidity;BME280_pressure;Samples;Min_cycle;Max_cycle;Signal;HPM_P1;HPM_P2
2022/04/04 00:00:57;;;;;;;3.13;1.00;;;3.20;99.90;;;;;;5015446;28;20467;-82
2022/04/04 00:03:23;;;;;;;3.25;1.08;;;3.30;99.90;;;;;;5015968;28;20085;-81
2022/04/04 00:05:49;;;;;;;2.47;0.90;;;4.10;99.90;;;;;;5013698;28;20107;-81
2022/04/04 00:08:14;;;;;;;1.40;0.75;;;3.30;99.90;;;;;;5013526;28;20076;-82
2022/04/04 00:10:40;;;;;;;4.55;1.05;;;3.30;99.90;;;;;;5013838;28;20072;-82
2022/04/04 00:13:06;;;;;;;2.97;0.80;;;3.30;99.90;;;;;;5013798;28;20057;-82
2022/04/04 00:15:32;;;;;;;3.72;0.93;;;3.30;99.90;;;;;;5013646;28;20054;-82
2022/04/04 00:18:05;;;;;;;3.03;1.15;;;3.30;99.90;;;;;;5014603;28;20049;-82
2022/04/04 00:20:31;;;;;;;1.92;0.93;;;3.60;99.90;;;;;;5014749;28;20500;-81
2022/04/04 00:22:57;;;;;;;1.00;0.70;;;3.30;99.90;;;;;;5014574;28;20050;-81
2022/04/04 00:25:23;;;;;;;3.72;0.90;;;3.90;99.90;;;;;;5015195;28;20557;-82
2022/04/04 00:27:50;;;;;;;1.70;0.93;;;3.60;99.90;;;;;;5013507;28;20045;-82
2022/04/04 00:30:17;;;;;;;1.80;0.98;;;3.40;99.90;;;;;;5013993;28;20042;-82
2022/04/04 00:32:43;;;;;;;2.90;1.08;;;3.30;99.90;;;;;;5014339;28;20474;-82
2022/04/04 00:35:09;;;;;;;7.05;1.08;;;4.50;99.90;;;;;;4997113;28;20536;-81
2022/04/04 00:37:37;;;;;;;3.53;1.08;;;4.00;99.90;;;;;;5014315;28;20108;-82
2022/04/04 00:40:05;;;;;;;4.45;1.45;;;3.30;99.90;;;;;;5013081;28;20116;-82
2022/04/04 00:42:31;;;;;;;2.63;1.20;;;3.30;99.90;;;;;;5014780;28;20089;-81
2022/04/04 00:44:57;;;;;;;4.72;1.30;;;3.40;99.90;;;;;;5014195;28;20053;-82
2022/04/04 00:47:23;;;;;;;4.45;1.50;;;3.40;99.90;;;;;;5013033;28;20049;-84
2022/04/04 00:49:49;;;;;;;2.85;1.50;;;3.30;99.90;;;;;;5013281;28;20045;-80
2022/04/04 00:52:15;;;;;;;4.22;1.65;;;3.10;99.90;;;;;;4996702;28;20053;-81
2022/04/04 00:54:41;;;;;;;2.63;1.50;;;3.60;99.90;;;;;;4997397;28;20489;-82
2022/04/04 00:57:06;;;;;;;4.68;1.70;;;3.70;99.90;;;;;;5013150;28;20082;-82
2022/04/04 00:59:33;;;;;;;3.55;1.67;;;3.60;99.90;;;;;;5014308;28;20038;-84
2022/04/04 01:01:59;;;;;;;4.97;1.60;;;3.30;99.90;;;;;;5013850;28;20061;-84
2022/04/04 01:04:25;;;;;;;3.65;1.58;;;3.80;99.90;;;;;;5013726;28;20073;-83
2022/04/04 01:06:51;;;;;;;3.80;1.45;;;3.50;99.90;;;;;;5012864;28;20072;-83
2022/04/04 01:09:17;;;;;;;3.45;1.60;;;3.90;99.90;;;;;;5014321;28;20038;-83
2022/04/04 01:12:03;;;;;;;2.97;1.60;;;3.60;99.90;;;;;;5013974;28;20048;-87
2022/04/04 01:14:29;;;;;;;3.10;1.73;;;3.60;99.90;;;;;;5012972;28;20054;-82
2022/04/04 01:16:55;;;;;;;3.67;1.30;;;3.60;99.90;;;;;;5014376;28;20366;-84
2022/04/04 01:19:20;;;;;;;5.60;2.08;;;3.70;99.90;;;;;;5012675;28;20037;-84
2022/04/04 01:21:46;;;;;;;4.72;1.80;;;4.00;99.90;;;;;;5012718;28;20037;-83
2022/04/04 01:24:17;;;;;;;4.07;2.20;;;4.20;99.90;;;;;;5013811;28;20042;-83
2022/04/04 01:26:50;;;;;;;4.63;2.58;;;3.70;99.90;;;;;;5013763;28;20084;-81
2022/04/04 01:29:17;;;;;;;5.45;2.70;;;3.70;99.90;;;;;;5014333;28;20090;-83
2022/04/04 01:31:43;;;;;;;6.65;2.72;;;3.70;99.90;;;;;;5013855;28;20049;-85
2022/04/04 01:34:08;;;;;;;7.10;2.75;;;3.80;99.90;;;;;;5013715;28;20049;-83
2022/04/04 01:36:35;;;;;;;6.20;2.80;;;5.80;99.90;;;;;;5013522;28;20042;-80
2022/04/04 01:39:01;;;;;;;4.55;2.97;;;3.80;99.90;;;;;;4996315;28;20120;-83
2022/04/04 01:41:27;;;;;;;4.28;2.67;;;3.80;99.90;;;;;;5017845;28;20073;-83
2022/04/04 01:43:53;;;;;;;7.13;3.20;;;3.80;99.90;;;;;;5000277;28;20049;-84
2022/04/04 01:46:25;;;;;;;6.45;2.95;;;4.00;99.90;;;;;;5017530;28;20046;-83
2022/04/04 01:48:55;;;;;;;5.68;3.28;;;4.40;99.90;;;;;;5018287;28;20060;-82
2022/04/04 01:51:22;;;;;;;5.80;3.03;;;3.80;99.90;;;;;;5017558;28;20111;-81
2022/04/04 01:53:48;;;;;;;6.93;3.50;;;3.80;99.90;;;;;;5016509;28;20488;-83
2022/04/04 01:56:15;;;;;;;6.18;3.60;;;3.80;99.90;;;;;;5017392;28;20050;-83
2022/04/04 01:58:41;;;;;;;7.07;3.85;;;3.90;99.90;;;;;;5018083;28;20474;-82
2022/04/04 02:01:15;;;;;;;6.25;3.70;;;4.20;99.90;;;;;;5018303;28;20085;-84
2022/04/04 02:03:42;;;;;;;8.48;3.72;;;3.90;99.90;;;;;;5017438;28;20081;-84
2022/04/04 02:06:08;;;;;;;7.95;4.10;;;3.90;99.90;;;;;;5023382;28;20469;-86
2022/04/04 02:08:35;;;;;;;8.38;4.07;;;3.90;99.90;;;;;;5018877;28;20087;-83
2022/04/04 02:11:02;;;;;;;10.40;4.35;;;3.90;99.90;;;;;;5017431;28;20045;-84
2022/04/04 02:13:28;;;;;;;10.57;4.55;;;4.50;99.90;;;;;;5017372;28;20069;-84
2022/04/04 02:15:56;;;;;;;9.45;5.30;;;4.00;99.90;;;;;;5016874;28;20046;-84
2022/04/04 02:18:22;;;;;;;10.10;5.32;;;4.50;99.90;;;;;;5017569;28;20134;-83
2022/04/04 02:20:48;;;;;;;10.18;5.43;;;4.30;99.90;;;;;;5016429;28;20045;-84
2022/04/04 02:23:18;;;;;;;9.02;5.18;;;4.00;99.90;;;;;;5016807;28;20045;-83
2022/04/04 02:25:45;;;;;;;10.07;6.20;;;4.00;99.90;;;;;;5015790;28;20136;-83
2022/04/04 02:28:11;;;;;;;8.05;5.57;;;4.00;99.90;;;;;;5015976;28;20100;-84
2022/04/04 02:30:37;;;;;;;9.40;5.45;;;4.00;99.90;;;;;;5016388;28;20420;-82
2022/04/04 02:33:03;;;;;;;11.13;5.15;;;4.00;99.90;;;;;;5017276;28;20132;-84
2022/04/04 02:35:29;;;;;;;11.02;6.82;;;4.10;99.90;;;;;;5016357;28;20517;-84
2022/04/04 02:37:55;;;;;;;13.30;6.43;;;4.00;99.90;;;;;;5015473;28;20042;-83
2022/04/04 02:40:21;;;;;;;11.20;6.93;;;4.10;99.90;;;;;;4998827;28;20044;-83
2022/04/04 02:42:48;;;;;;;12.00;5.97;;;4.10;99.90;;;;;;5016457;28;20037;-82
2022/04/04 02:45:14;;;;;;;8.65;6.10;;;4.10;99.90;;;;;;5016397;28;20042;-82
2022/04/04 02:47:41;;;;;;;9.27;6.22;;;4.30;99.90;;;;;;5016386;28;20045;-83
2022/04/04 02:50:08;;;;;;;11.32;6.13;;;4.60;99.90;;;;;;5016917;28;20074;-85
2022/04/04 02:52:34;;;;;;;10.23;6.05;;;4.30;99.90;;;;;;4998081;28;20121;-78
2022/04/04 02:56:28;;;;;;;8.93;6.05;;;4.20;99.90;;;;;;5016571;28;20129;-82
2022/04/04 02:57:45;;;;;;;10.45;5.72;;;4.30;99.90;;;;;;5016799;28;20053;-82
2022/04/04 03:00:11;;;;;;;10.27;5.97;;;4.70;99.90;;;;;;5014759;28;20052;-82
2022/04/04 03:02:38;;;;;;;11.32;6.40;;;4.40;99.90;;;;;;5014925;28;20050;-82
2022/04/04 03:05:04;;;;;;;11.27;6.75;;;4.40;99.90;;;;;;5016150;28;20061;-83
2022/04/04 03:07:30;;;;;;;10.75;6.40;;;4.40;99.90;;;;;;5016024;28;20073;-82
2022/04/04 03:09:55;;;;;;;11.07;6.20;;;4.20;99.90;;;;;;5015024;28;20052;-82
2022/04/04 03:12:21;;;;;;;9.30;5.72;;;4.50;99.90;;;;;;5015941;28;20042;-82
2022/04/04 03:14:47;;;;;;;10.50;6.45;;;4.50;99.90;;;;;;5015905;28;20493;-81
2022/04/04 03:17:12;;;;;;;10.88;6.80;;;4.70;99.90;;;;;;5015870;28;20045;-81
2022/04/04 03:19:38;;;;;;;9.98;6.72;;;4.60;99.90;;;;;;5015685;28;20386;-81
2022/04/04 03:22:04;;;;;;;11.20;6.68;;;4.50;99.90;;;;;;5015439;28;20038;-80
2022/04/04 03:24:30;;;;;;;10.57;6.70;;;4.50;99.90;;;;;;5014776;28;20091;-82
2022/04/04 03:26:55;;;;;;;11.15;6.32;;;4.50;99.90;;;;;;5015630;28;20386;-81
2022/04/04 03:29:21;;;;;;;11.50;7.45;;;4.50;99.90;;;;;;5014369;28;20033;-78
2022/04/04 03:31:47;;;;;;;11.55;6.95;;;4.60;99.90;;;;;;5015228;28;20050;-82
2022/04/04 03:34:13;;;;;;;10.35;6.32;;;5.00;99.90;;;;;;5014516;28;20053;-82
2022/04/04 03:36:39;;;;;;;15.30;7.00;;;4.60;99.90;;;;;;5016001;28;20084;-82
2022/04/04 03:39:05;;;;;;;11.07;6.80;;;4.60;99.90;;;;;;5015382;28;20049;-83
2022/04/04 03:41:30;;;;;;;11.40;6.45;;;4.60;99.90;;;;;;5015376;28;20128;-83
2022/04/04 03:43:56;;;;;;;11.50;6.72;;;4.60;99.90;;;;;;5014962;28;20080;-83
2022/04/04 03:46:22;;;;;;;13.18;7.15;;;4.70;99.90;;;;;;5015523;28;20053;-84
2022/04/04 03:48:47;;;;;;;12.85;6.50;;;5.30;99.90;;;;;;5014266;28;20042;-84
2022/04/04 03:51:13;;;;;;;11.40;6.85;;;4.60;99.90;;;;;;5014379;28;20096;-84
2022/04/04 03:53:39;;;;;;;11.98;7.18;;;4.60;99.90;;;;;;5016066;28;20046;-83
2022/04/04 03:56:05;;;;;;;11.90;6.28;;;4.50;99.90;;;;;;5015458;28;20454;-84
2022/04/04 03:58:31;;;;;;;11.88;7.03;;;4.60;99.90;;;;;;5013539;28;20049;-85
2022/04/04 04:00:56;;;;;;;9.95;6.78;;;4.30;99.90;;;;;;5015021;28;20469;-84
2022/04/04 04:03:22;;;;;;;11.65;7.72;;;4.60;99.90;;;;;;4997269;28;20192;-79
2022/04/04 04:05:48;;;;;;;11.30;7.20;;;4.70;99.90;;;;;;5013865;28;20046;-82
2022/04/04 04:08:14;;;;;;;13.40;7.72;;;4.80;99.90;;;;;;5015344;28;20046;-83
2022/04/04 04:10:39;;;;;;;10.90;7.53;;;4.90;99.90;;;;;;5014988;28;20476;-83
2022/04/04 04:13:05;;;;;;;13.48;8.45;;;4.70;99.90;;;;;;4997479;28;20492;-85
2022/04/04 04:15:31;;;;;;;12.68;7.25;;;5.00;99.90;;;;;;5014965;28;20054;-83
2022/04/04 04:17:57;;;;;;;13.32;7.68;;;4.70;99.90;;;;;;5013529;28;20078;-84
2022/04/04 04:20:23;;;;;;;13.45;7.75;;;4.80;99.90;;;;;;5014036;28;20078;-83
2022/04/04 04:22:54;;;;;;;14.43;8.45;;;4.70;99.90;;;;;;5016430;28;20065;-84
2022/04/04 04:25:21;;;;;;;13.48;8.05;;;5.00;99.90;;;;;;5022895;28;20053;-83
2022/04/04 04:27:47;;;;;;;12.98;8.15;;;4.80;99.90;;;;;;5024848;28;20057;-86
2022/04/04 04:30:13;;;;;;;13.15;8.25;;;4.70;99.90;;;;;;5026307;28;20049;-84
2022/04/04 04:32:45;;;;;;;12.40;7.72;;;5.00;99.90;;;;;;5022684;28;20512;-83
2022/04/04 04:35:11;;;;;;;12.45;7.50;;;4.70;99.90;;;;;;5018962;28;20235;-84
2022/04/04 04:37:37;;;;;;;12.43;8.23;;;4.70;99.90;;;;;;5017597;28;20374;-86
2022/04/04 04:40:04;;;;;;;12.23;7.65;;;4.70;99.90;;;;;;5015078;28;20129;-85
2022/04/04 04:42:30;;;;;;;16.25;8.90;;;4.70;99.90;;;;;;5015652;28;20046;-82
2022/04/04 04:44:56;;;;;;;12.48;8.02;;;4.70;99.90;;;;;;5013916;28;20058;-84
2022/04/04 04:47:22;;;;;;;16.70;9.00;;;4.70;99.90;;;;;;4997135;28;20052;-82
2022/04/04 04:49:48;;;;;;;15.70;8.57;;;4.70;99.90;;;;;;5013637;28;20129;-83
2022/04/04 04:52:15;;;;;;;17.75;8.57;;;4.70;99.90;;;;;;5014075;28;20488;-84
2022/04/04 04:54:42;;;;;;;15.80;9.20;;;4.60;99.90;;;;;;5012976;28;20482;-82
2022/04/04 04:57:08;;;;;;;12.40;8.18;;;4.60;99.90;;;;;;5014458;28;20049;-81
2022/04/04 04:59:34;;;;;;;16.65;9.18;;;4.40;99.90;;;;;;5014132;28;20430;-79
2022/04/04 05:02:00;;;;;;;14.05;7.93;;;4.50;99.90;;;;;;5013956;28;20058;-80
2022/04/04 05:04:26;;;;;;;16.48;8.20;;;4.60;99.90;;;;;;5013968;28;20058;-79
2022/04/04 05:06:52;;;;;;;14.80;8.90;;;4.60;99.90;;;;;;5014041;28;20088;-80
2022/04/04 05:09:17;;;;;;;15.70;8.95;;;4.60;99.90;;;;;;5013914;28;20137;-83
2022/04/04 05:11:44;;;;;;;13.30;8.45;;;4.60;99.90;;;;;;5014418;28;20057;-83
2022/04/04 05:14:15;;;;;;;12.18;7.97;;;4.60;99.90;;;;;;5014340;28;20395;-79
2022/04/04 05:16:45;;;;;;;12.50;7.63;;;4.60;99.90;;;;;;5014618;28;20042;-79
2022/04/04 05:19:19;;;;;;;10.80;7.85;;;4.90;99.90;;;;;;5012826;28;20048;-80
2022/04/04 05:21:45;;;;;;;13.63;8.30;;;4.60;99.90;;;;;;4996819;28;20058;-82
2022/04/04 05:24:11;;;;;;;14.77;8.85;;;4.70;99.90;;;;;;5013757;28;20069;-82
2022/04/04 05:26:37;;;;;;;13.52;8.10;;;4.60;99.90;;;;;;5014809;28;20046;-82
2022/04/04 05:29:03;;;;;;;12.70;8.63;;;4.60;99.90;;;;;;4996468;28;20050;-79
2022/04/04 05:31:30;;;;;;;12.25;7.68;;;4.60;99.90;;;;;;5014503;28;20120;-81
2022/04/04 05:33:57;;;;;;;12.00;8.05;;;4.60;99.90;;;;;;5012654;28;20045;-82
2022/04/04 05:36:25;;;;;;;16.10;8.82;;;4.50;99.90;;;;;;5013824;28;20053;-85
2022/04/04 05:38:50;;;;;;;15.95;8.82;;;4.60;99.90;;;;;;5013888;28;20209;-83
2022/04/04 05:41:18;;;;;;;15.55;9.68;;;4.50;99.90;;;;;;5012542;28;20502;-83
2022/04/04 05:43:44;;;;;;;15.23;8.40;;;4.80;99.90;;;;;;5012828;28;20112;-82
2022/04/04 05:46:11;;;;;;;14.88;9.23;;;4.40;99.90;;;;;;5013882;28;20048;-82
2022/04/04 05:48:37;;;;;;;14.98;9.10;;;4.50;99.90;;;;;;5013579;28;20554;-85
2022/04/04 05:51:03;;;;;;;17.70;9.45;;;4.50;99.90;;;;;;5012750;28;20088;-87
2022/04/04 05:53:29;;;;;;;15.07;8.70;;;4.50;99.90;;;;;;5014163;28;20053;-86
2022/04/04 05:55:55;;;;;;;12.20;8.18;;;4.50;99.90;;;;;;5012696;28;20069;-83
2022/04/04 05:58:21;;;;;;;17.65;9.95;;;4.50;99.90;;;;;;5012447;28;20056;-83
2022/04/04 06:00:46;;;;;;;14.63;8.85;;;4.50;99.90;;;;;;5013374;28;20049;-87
2022/04/04 06:03:13;;;;;;;14.93;9.93;;;4.50;99.90;;;;;;4995643;28;20104;-85
2022/04/04 06:05:38;;;;;;;16.30;9.45;;;4.50;99.90;;;;;;5013235;28;20569;-86
2022/04/04 06:08:04;;;;;;;16.30;9.77;;;4.50;99.90;;;;;;5012360;28;20128;-88
2022/04/04 06:10:30;;;;;;;16.23;9.68;;;4.70;99.90;;;;;;5014165;28;20466;-86
2022/04/04 06:12:55;;;;;;;15.90;9.88;;;4.90;99.90;;;;;;4996087;28;20104;-82
2022/04/04 06:15:21;;;;;;;14.80;9.00;;;4.40;99.90;;;;;;5013410;28;20042;-81
2022/04/04 06:17:47;;;;;;;14.93;9.68;;;4.40;99.90;;;;;;5013385;28;20100;-83
2022/04/04 06:20:13;;;;;;;17.77;9.52;;;4.40;99.90;;;;;;5013202;28;20049;-86
2022/04/04 06:22:39;;;;;;;14.45;9.80;;;4.40;99.90;;;;;;5012282;28;20751;-80
2022/04/04 06:25:12;;;;;;;13.70;9.95;;;4.30;99.90;;;;;;5012536;28;20104;-85
2022/04/04 06:27:39;;;;;;;16.90;11.00;;;4.30;99.90;;;;;;5014955;28;20393;-82
2022/04/04 06:30:06;;;;;;;15.13;10.10;;;4.50;99.90;;;;;;5015579;28;20050;-84
2022/04/04 06:32:31;;;;;;;14.75;9.85;;;4.30;99.90;;;;;;5017416;28;20052;-81
2022/04/04 06:34:57;;;;;;;16.80;10.23;;;4.60;99.90;;;;;;5017116;28;20046;-81
2022/04/04 06:37:23;;;;;;;16.13;9.27;;;4.50;99.90;;;;;;5015323;28;20405;-78
2022/04/04 06:39:49;;;;;;;14.82;10.45;;;4.10;99.90;;;;;;5016418;28;20041;-79
2022/04/04 06:42:14;;;;;;;17.50;11.15;;;4.70;99.90;;;;;;4999517;28;20046;-83
2022/04/04 06:44:42;;;;;;;15.80;10.35;;;4.50;99.90;;;;;;5016824;28;20050;-76
2022/04/04 06:47:08;;;;;;;17.35;10.15;;;4.40;99.90;;;;;;5014942;28;20551;-79
2022/04/04 06:49:34;;;;;;;16.98;10.45;;;4.20;99.90;;;;;;5015610;28;20133;-74
2022/04/04 06:52:00;;;;;;;14.30;10.65;;;4.20;99.90;;;;;;5016293;28;20188;-73
2022/04/04 06:54:27;;;;;;;15.40;10.77;;;4.20;99.90;;;;;;5016881;28;20053;-74
2022/04/04 06:56:53;;;;;;;19.48;11.00;;;4.90;99.90;;;;;;5016354;28;20064;-73
2022/04/04 06:59:20;;;;;;;17.25;10.75;;;4.80;99.90;;;;;;5016299;28;20042;-72
2022/04/04 07:01:47;;;;;;;14.20;10.27;;;4.10;99.90;;;;;;5016144;28;20061;-72
2022/04/04 07:04:13;;;;;;;13.20;9.35;;;4.20;99.90;;;;;;5015484;28;20058;-77
2022/04/04 07:06:38;;;;;;;12.35;9.07;;;4.10;99.90;;;;;;5016596;28;20132;-74
2022/04/04 07:09:04;;;;;;;14.38;9.55;;;4.20;99.90;;;;;;5014512;28;20049;-73
2022/04/04 07:11:30;;;;;;;15.82;9.85;;;3.90;99.90;;;;;;4999570;28;20085;-73
2022/04/04 07:13:56;;;;;;;13.80;9.70;;;4.20;99.90;;;;;;5015634;28;20057;-72
2022/04/04 07:16:22;;;;;;;12.77;9.50;;;4.20;99.90;;;;;;5015571;28;20053;-73
2022/04/04 07:18:48;;;;;;;12.88;8.38;;;4.20;99.90;;;;;;5014409;28;20131;-76
2022/04/04 07:21:15;;;;;;;13.90;9.25;;;4.20;99.90;;;;;;5015674;28;20057;-76
2022/04/04 07:23:41;;;;;;;11.52;8.73;;;4.20;99.90;;;;;;5014552;28;20073;-75
2022/04/04 07:26:07;;;;;;;11.30;8.43;;;4.40;99.90;;;;;;5015769;28;20474;-75
2022/04/04 07:28:33;;;;;;;11.13;8.70;;;4.20;99.90;;;;;;5016258;28;20053;-72
2022/04/04 07:31:00;;;;;;;13.63;8.43;;;4.20;99.90;;;;;;5015547;28;20417;-72
2022/04/04 07:33:25;;;;;;;13.02;8.73;;;4.20;99.90;;;;;;5015570;28;20052;-71
2022/04/04 07:35:51;;;;;;;15.45;9.27;;;4.60;99.90;;;;;;5014391;28;20046;-75
2022/04/04 07:38:17;;;;;;;11.63;7.22;;;4.70;99.90;;;;;;5014738;28;20057;-71
2022/04/04 07:40:43;;;;;;;10.75;8.05;;;4.20;99.90;;;;;;5015416;28;20087;-72
2022/04/04 07:43:09;;;;;;;14.88;9.65;;;4.30;99.90;;;;;;5015490;28;20054;-79
2022/04/04 07:45:35;;;;;;;11.75;8.90;;;4.30;99.90;;;;;;5015365;28;20053;-75
2022/04/04 07:48:01;;;;;;;12.25;9.07;;;4.20;99.90;;;;;;5015271;28;20116;-69
2022/04/04 07:50:27;;;;;;;15.60;10.15;;;4.30;99.90;;;;;;5014082;28;20049;-72
2022/04/04 07:52:53;;;;;;;18.23;9.75;;;4.40;99.90;;;;;;5015202;28;20042;-73
2022/04/04 07:55:19;;;;;;;13.70;9.00;;;4.30;99.90;;;;;;5015020;28;20056;-71
2022/04/04 07:57:45;;;;;;;13.05;10.02;;;4.10;99.90;;;;;;5015212;28;20046;-70
2022/04/04 08:00:17;;;;;;;12.15;9.52;;;4.30;99.90;;;;;;5013735;28;20037;-73
2022/04/04 08:02:44;;;;;;;17.60;10.40;;;4.40;99.90;;;;;;5013854;28;20066;-73
2022/04/04 08:05:11;;;;;;;13.35;9.02;;;4.40;99.90;;;;;;5014967;28;20072;-71
2022/04/04 08:07:37;;;;;;;13.23;9.57;;;4.40;99.90;;;;;;5014932;28;20097;-71
2022/04/04 08:10:04;;;;;;;15.25;9.73;;;4.60;99.90;;;;;;5013754;28;20054;-72
2022/04/04 08:12:30;;;;;;;12.65;8.75;;;4.40;99.90;;;;;;5014178;28;20490;-73
2022/04/04 08:14:56;;;;;;;15.30;10.52;;;4.40;99.90;;;;;;5014834;28;20053;-72
2022/04/04 08:17:23;;;;;;;14.32;8.95;;;4.90;99.90;;;;;;5015334;28;20076;-74
2022/04/04 08:19:50;;;;;;;14.48;9.48;;;5.30;99.90;;;;;;5014694;28;20049;-72
2022/04/04 08:22:16;;;;;;;14.57;9.32;;;4.40;99.90;;;;;;5014697;28;20079;-71
2022/04/04 08:24:42;;;;;;;13.77;9.10;;;4.40;99.90;;;;;;5013725;28;20371;-79
2022/04/04 08:27:10;;;;;;;13.38;9.40;;;4.50;99.90;;;;;;5014644;28;20049;-85
2022/04/04 08:29:36;;;;;;;12.35;8.93;;;4.60;99.90;;;;;;5014301;28;20046;-72
2022/04/04 08:32:02;;;;;;;13.35;8.52;;;5.30;99.90;;;;;;5014496;28;20050;-74
2022/04/04 08:34:28;;;;;;;12.65;8.43;;;4.60;99.90;;;;;;5014715;28;20054;-70
2022/04/04 08:36:54;;;;;;;12.93;8.55;;;4.70;99.90;;;;;;4997859;28;20072;-71
2022/04/04 08:39:20;;;;;;;12.68;7.68;;;4.70;99.90;;;;;;5014375;28;20042;-77
2022/04/04 08:41:45;;;;;;;10.15;6.85;;;5.10;99.90;;;;;;4997275;28;20049;-75
2022/04/04 08:44:14;;;;;;;8.73;5.50;;;5.30;99.90;;;;;;4997067;28;20048;-71
2022/04/04 08:46:41;;;;;;;7.80;6.03;;;4.80;99.90;;;;;;5014283;28;20093;-82
2022/04/04 08:49:07;;;;;;;7.00;5.68;;;5.10;99.90;;;;;;5014340;28;20058;-71
2022/04/04 08:51:33;;;;;;;8.52;5.35;;;5.00;99.90;;;;;;5013308;28;20062;-76
2022/04/04 08:53:59;;;;;;;8.85;5.55;;;5.20;99.90;;;;;;5014220;28;20136;-72
2022/04/04 08:56:26;;;;;;;7.85;5.40;;;4.90;99.90;;;;;;5013463;28;20042;-74
2022/04/04 08:58:53;;;;;;;8.20;4.32;;;4.90;99.90;;;;;;4996727;28;20049;-77
2022/04/04 09:01:20;;;;;;;6.13;3.67;;;5.00;99.90;;;;;;5014114;28;20508;-75
2022/04/04 09:04:01;;;;;;;4.95;3.78;;;5.00;99.90;;;;;;5014617;28;20061;-76
2022/04/04 09:06:28;;;;;;;5.18;3.58;;;5.00;99.90;;;;;;5013998;28;20042;-75
2022/04/04 09:08:55;;;;;;;5.45;3.95;;;5.10;99.90;;;;;;5014060;28;20119;-81
2022/04/04 09:11:21;;;;;;;5.15;3.17;;;5.10;99.90;;;;;;5014282;28;20089;-74
2022/04/04 09:14:08;;;;;;;4.72;2.35;;;5.20;99.90;;;;;;5013983;28;20050;-78
2022/04/04 09:16:34;;;;;;;4.53;2.40;;;5.20;99.90;;;;;;5014015;28;20049;-74
2022/04/04 09:19:00;;;;;;;7.60;3.83;;;5.20;99.90;;;;;;5012312;28;20050;-72
2022/04/04 09:21:26;;;;;;;3.60;1.70;;;5.30;99.90;;;;;;5012107;28;20125;-76
2022/04/04 09:23:58;;;;;;;3.03;1.42;;;5.70;99.90;;;;;;5013169;28;20081;-79
2022/04/04 09:26:37;;;;;;;2.25;1.40;;;5.50;99.90;;;;;;4995668;28;20046;-72
2022/04/04 09:29:19;;;;;;;2.85;1.40;;;5.30;99.90;;;;;;5013660;28;20050;-68
2022/04/04 09:32:05;;;;;;;3.78;1.80;;;5.70;99.90;;;;;;5013397;28;20104;-67
2022/04/04 09:34:53;;;;;;;1.95;1.20;;;5.30;99.90;;;;;;5014061;28;20049;-67
2022/04/04 09:37:23;;;;;;;2.22;1.30;;;5.30;99.90;;;;;;5013147;28;20061;-70
2022/04/04 09:39:50;;;;;;;2.28;1.20;;;5.30;99.90;;;;;;5012922;28;20042;-66
2022/04/04 09:42:18;;;;;;;2.47;1.02;;;5.10;99.90;;;;;;5013652;28;20061;-69
2022/04/04 09:44:58;;;;;;;2.00;0.90;;;5.40;99.90;;;;;;5012664;28;20050;-68
2022/04/04 09:47:52;;;;;;;1.88;1.00;;;5.40;99.90;;;;;;5012728;28;20462;-68
2022/04/04 09:50:36;;;;;;;2.00;1.10;;;5.40;99.90;;;;;;5013701;28;20078;-66
2022/04/04 09:53:07;;;;;;;2.58;0.98;;;5.40;99.90;;;;;;5013051;28;20049;-68
2022/04/04 09:55:43;;;;;;;2.67;1.10;;;5.40;99.90;;;;;;5012496;28;20042;-70
2022/04/04 09:58:12;;;;;;;1.50;0.80;;;5.50;99.90;;;;;;5013101;28;20053;-69
2022/04/04 10:00:39;;;;;;;1.83;0.95;;;5.60;99.90;;;;;;5013350;28;20046;-69
2022/04/04 10:03:07;;;;;;;1.58;0.80;;;5.50;99.90;;;;;;5016471;28;20094;-68
2022/04/04 10:05:35;;;;;;;3.13;0.90;;;5.50;99.90;;;;;;4998955;28;20061;-69
2022/04/04 10:08:02;;;;;;;1.30;0.90;;;5.40;99.90;;;;;;5016434;28;20049;-68
2022/04/04 10:10:31;;;;;;;2.00;1.10;;;5.60;99.90;;;;;;5016989;28;20089;-68
2022/04/04 10:12:58;;;;;;;2.00;1.27;;;5.60;99.90;;;;;;5016222;28;20088;-69
2022/04/04 10:15:26;;;;;;;2.63;0.98;;;5.60;99.90;;;;;;5015911;28;20468;-67
2022/04/04 10:17:53;;;;;;;2.38;1.08;;;5.60;99.90;;;;;;5016095;28;20054;-67
2022/04/04 10:20:20;;;;;;;2.55;1.08;;;5.60;99.90;;;;;;5016531;28;20112;-66
2022/04/04 10:22:52;;;;;;;3.97;1.20;;;5.70;99.90;;;;;;5014941;28;20056;-67
2022/04/04 10:25:24;;;;;;;2.92;1.15;;;5.60;99.90;;;;;;5016199;28;20053;-71
2022/04/04 10:27:51;;;;;;;2.88;1.33;;;5.70;99.90;;;;;;5015564;28;20409;-69
2022/04/04 10:30:17;;;;;;;3.00;1.17;;;5.90;99.90;;;;;;5015263;28;20056;-69
2022/04/04 10:32:52;;;;;;;4.07;1.60;;;5.70;99.90;;;;;;5016580;28;20046;-69
2022/04/04 10:35:26;;;;;;;2.15;1.20;;;5.40;99.90;;;;;;5016014;28;20049;-68
2022/04/04 10:37:52;;;;;;;2.53;1.20;;;6.00;99.90;;;;;;5014825;28;20060;-68
2022/04/04 10:40:18;;;;;;;2.38;1.13;;;5.90;99.90;;;;;;5015333;28;20105;-67
2022/04/04 10:42:46;;;;;;;5.18;1.30;;;5.80;99.90;;;;;;5015766;28;20081;-69
2022/04/04 10:45:13;;;;;;;1.40;1.10;;;5.90;99.90;;;;;;5015150;28;20049;-68
2022/04/04 10:47:42;;;;;;;2.55;1.35;;;5.90;99.90;;;;;;5015359;28;20113;-70
2022/04/04 10:50:25;;;;;;;3.47;1.20;;;5.90;99.90;;;;;;5014994;28;20116;-68
2022/04/04 10:52:52;;;;;;;1.98;1.20;;;5.90;99.90;;;;;;5016486;28;20128;-70
2022/04/04 10:55:27;;;;;;;2.00;1.13;;;6.00;99.90;;;;;;5015231;28;20084;-67
2022/04/04 10:58:00;;;;;;;2.70;1.10;;;5.90;99.90;;;;;;5015648;28;20053;-67
2022/04/04 11:00:37;;;;;;;3.30;2.17;;;5.90;99.90;;;;;;5015044;28;20128;-67
2022/04/04 11:03:02;;;;;;;4.95;2.28;;;6.00;99.90;;;;;;5015384;28;20062;-68
2022/04/04 11:08:32;;;;;;;3.65;1.20;;;6.00;99.90;;;;;;4969769;28;20061;-66
2022/04/04 11:10:58;;;;;;;2.42;1.30;;;6.00;99.90;;;;;;5014389;28;20054;-68
2022/04/04 11:13:24;;;;;;;3.05;1.23;;;6.00;99.90;;;;;;5014885;28;20554;-67
2022/04/04 11:15:54;;;;;;;2.15;1.10;;;6.10;99.90;;;;;;5014295;28;20466;-69
2022/04/04 11:18:20;;;;;;;2.67;1.10;;;6.10;99.90;;;;;;4998536;28;20046;-66
2022/04/04 11:20:53;;;;;;;1.33;1.00;;;6.10;99.90;;;;;;5013661;28;20045;-67
2022/04/04 11:23:20;;;;;;;1.70;1.33;;;6.20;99.90;;;;;;5013989;28;20064;-65
2022/04/04 11:25:54;;;;;;;2.10;1.40;;;6.20;99.90;;;;;;5014138;28;20088;-66
2022/04/04 11:28:25;;;;;;;;;;;6.20;99.90;;;;;;5014844;28;20134;-70
2022/04/04 11:30:53;;;;;;;1.80;1.10;;;6.20;99.90;;;;;;5014890;28;19922;-71
2022/04/04 11:33:26;;;;;;;1.20;0.77;;;6.20;99.90;;;;;;5013626;28;20520;-68
2022/04/04 11:35:52;;;;;;;5.03;2.05;;;6.30;99.90;;;;;;5013999;28;20072;-68
2022/04/04 11:38:22;;;;;;;2.92;1.00;;;6.20;99.90;;;;;;5014788;28;20073;-71
2022/04/04 11:40:55;;;;;;;2.08;0.75;;;7.00;99.90;;;;;;4997740;28;20048;-65
2022/04/04 11:43:23;;;;;;;0.70;0.70;;;6.20;99.90;;;;;;5015476;28;20057;-65
2022/04/04 11:45:52;;;;;;;0.77;0.68;;;6.90;99.90;;;;;;5014182;28;20111;-66
2022/04/04 11:48:27;;;;;;;3.08;0.90;;;6.40;99.90;;;;;;5013380;28;20049;-66
2022/04/04 11:50:58;;;;;;;2.90;0.85;;;6.80;99.90;;;;;;5013970;28;20049;-66
2022/04/04 11:53:27;;;;;;;1.27;0.80;;;6.40;99.90;;;;;;5014071;28;20042;-65
2022/04/04 11:56:01;;;;;;;2.85;0.85;;;6.40;99.90;;;;;;5014357;28;20045;-64
2022/04/04 11:58:27;;;;;;;1.30;0.70;;;6.60;99.90;;;;;;5014313;28;20050;-67
2022/04/04 12:01:04;;;;;;;1.38;0.90;;;6.50;99.90;;;;;;5014242;28;20608;-66
2022/04/04 12:03:32;;;;;;;0.90;0.70;;;6.50;99.90;;;;;;5014444;28;20062;-66
2022/04/04 12:06:05;;;;;;;1.25;0.73;;;6.50;99.90;;;;;;5014190;28;20049;-68
2022/04/04 12:08:31;;;;;;;1.48;0.63;;;6.50;99.90;;;;;;5014920;28;20160;-66
2022/04/04 12:10:57;;;;;;;1.35;0.47;;;6.60;99.90;;;;;;5013119;28;20466;-66
2022/04/04 12:13:23;;;;;;;0.70;0.50;;;6.60;99.90;;;;;;4997554;28;20046;-66
2022/04/04 12:15:51;;;;;;;1.15;0.57;;;6.60;99.90;;;;;;5014730;28;20552;-65
2022/04/04 12:18:26;;;;;;;1.05;0.60;;;6.60;99.90;;;;;;5015452;28;20053;-65
2022/04/04 12:21:03;;;;;;;0.80;0.60;;;6.70;99.90;;;;;;5014790;28;20052;-67
2022/04/04 12:26:17;;;;;;;1.05;0.47;;;6.80;99.90;;;;;;5014539;28;20132;-65
2022/04/04 12:28:48;;;;;;;1.15;0.60;;;6.90;99.90;;;;;;5013442;28;20514;-69
2022/04/04 12:31:22;;;;;;;0.63;0.52;;;6.90;99.90;;;;;;5014309;28;20138;-65
2022/04/04 12:34:07;;;;;;;2.40;0.70;;;6.80;99.90;;;;;;5013349;28;20433;-65
2022/04/04 12:36:43;;;;;;;1.63;0.85;;;6.80;99.90;;;;;;5014383;28;20066;-66
2022/04/04 12:39:17;;;;;;;1.42;0.73;;;6.90;99.90;;;;;;5014574;28;20055;-67
2022/04/04 12:41:51;;;;;;;0.80;0.40;;;6.90;99.90;;;;;;5014082;28;20139;-67
2022/04/04 12:44:25;;;;;;;1.55;0.50;;;7.00;99.90;;;;;;5014777;28;20053;-67
2022/04/04 12:47:08;;;;;;;0.95;0.60;;;7.00;99.90;;;;;;5013051;28;20486;-67
2022/04/04 12:49:33;;;;;;;1.02;0.52;;;7.00;99.90;;;;;;4997159;28;20045;-67
2022/04/04 12:52:10;;;;;;;0.80;0.60;;;7.00;99.90;;;;;;4996632;28;20073;-65
2022/04/04 12:54:40;;;;;;;1.55;0.60;;;7.00;99.90;;;;;;4996790;28;20061;-66
2022/04/04 12:57:08;;;;;;;0.40;0.30;;;7.00;99.90;;;;;;4997276;28;20056;-66
2022/04/04 12:59:48;;;;;;;1.65;0.50;;;7.00;99.90;;;;;;5012819;28;20145;-66
2022/04/04 13:02:15;;;;;;;0.75;0.43;;;7.10;99.90;;;;;;5013784;28;20053;-67